createdAt,value
2023-03-17T00:01:10.307Z,2.00
2023-03-17T00:03:44.847Z,2.30
2023-03-17T00:06:29.059Z,2.70
2023-03-17T00:09:02.522Z,2.80
2023-03-17T00:11:35.721Z,2.50
2023-03-17T00:14:08.854Z,3.00
2023-03-17T00:16:49.041Z,2.70
2023-03-17T00:19:35.535Z,2.40
2023-03-17T00:22:17.562Z,2.60
2023-03-17T00:24:50.590Z,2.40
2023-03-17T00:27:23.642Z,2.60
2023-03-17T00:29:57.866Z,2.20
2023-03-17T00:32:30.892Z,2.90
2023-03-17T00:35:06.544Z,2.50
2023-03-17T00:37:40.164Z,2.50
2023-03-17T00:40:19.556Z,3.30
2023-03-17T00:42:53.505Z,2.80
2023-03-17T00:45:28.560Z,3.10
2023-03-17T00:48:03.799Z,2.60
2023-03-17T00:50:37.356Z,2.30
2023-03-17T00:53:17.204Z,2.30
2023-03-17T00:55:51.099Z,3.00
2023-03-17T00:58:35.930Z,2.10
2023-03-17T01:01:09.050Z,2.50
2023-03-17T01:03:42.508Z,2.10
2023-03-17T01:06:17.068Z,2.30
2023-03-17T01:08:51.045Z,2.80
2023-03-17T01:11:24.428Z,2.90
2023-03-17T01:13:57.871Z,2.70
2023-03-17T01:16:31.228Z,2.50
2023-03-17T01:19:05.143Z,2.20
2023-03-17T01:21:38.263Z,2.20
2023-03-17T01:24:11.672Z,2.70
2023-03-17T01:26:46.215Z,1.80
2023-03-17T01:29:19.861Z,2.60
2023-03-17T01:31:53.512Z,2.60
2023-03-17T01:34:26.809Z,2.40
2023-03-17T01:37:00.579Z,2.80
2023-03-17T01:39:33.970Z,2.30
2023-03-17T01:42:07.731Z,2.40
2023-03-17T01:45:01.116Z,2.20
2023-03-17T01:47:33.717Z,1.90
2023-03-17T01:50:12.872Z,2.70
2023-03-17T01:52:45.475Z,2.20
2023-03-17T01:55:21.985Z,2.10
2023-03-17T01:57:56.957Z,2.20
2023-03-17T02:00:31.363Z,2.80
2023-03-17T02:03:06.647Z,2.40
2023-03-17T02:05:40.742Z,1.80
2023-03-17T02:08:18.077Z,2.30
2023-03-17T02:10:53.048Z,2.40
2023-03-17T02:13:27.573Z,1.80
2023-03-17T02:16:01.260Z,2.10
2023-03-17T02:18:34.516Z,1.80
2023-03-17T02:21:36.765Z,2.50
2023-03-17T02:24:21.773Z,1.90
2023-03-17T02:26:57.700Z,2.20
2023-03-17T02:29:31.182Z,2.00
2023-03-17T02:32:04.931Z,1.70
2023-03-17T02:34:38.294Z,2.20
2023-03-17T02:37:11.584Z,1.60
2023-03-17T02:39:45.061Z,1.70
2023-03-17T02:42:18.354Z,2.50
2023-03-17T02:44:51.557Z,2.10
2023-03-17T02:47:25.216Z,1.70
2023-03-17T02:49:58.677Z,2.30
2023-03-17T02:52:31.721Z,2.10
2023-03-17T02:55:04.943Z,2.20
2023-03-17T02:57:38.283Z,2.00
2023-03-17T03:00:13.760Z,2.10
2023-03-17T03:02:46.649Z,1.80
2023-03-17T03:05:20.267Z,2.20
2023-03-17T03:07:53.322Z,2.10
2023-03-17T03:10:26.335Z,1.90
2023-03-17T03:12:59.798Z,2.20
2023-03-17T03:15:33.579Z,1.70
2023-03-17T03:18:07.423Z,1.50
2023-03-17T03:20:40.586Z,1.90
2023-03-17T03:23:14.501Z,2.20
2023-03-17T03:25:48.335Z,2.60
2023-03-17T03:28:21.392Z,2.30
2023-03-17T03:30:55.042Z,2.30
2023-03-17T03:33:29.073Z,2.60
2023-03-17T03:36:03.053Z,2.20
2023-03-17T03:38:37.107Z,2.10
2023-03-17T03:41:10.709Z,2.10
2023-03-17T03:43:43.570Z,1.90
2023-03-17T03:46:17.088Z,1.80
2023-03-17T03:48:50.204Z,2.40
2023-03-17T03:51:23.145Z,2.50
2023-03-17T03:53:56.394Z,2.50
2023-03-17T03:56:29.393Z,2.40
2023-03-17T03:59:02.411Z,2.90
2023-03-17T04:01:35.441Z,2.30
2023-03-17T04:04:09.037Z,3.40
2023-03-17T04:06:42.278Z,2.00
2023-03-17T04:09:16.530Z,2.50
2023-03-17T04:11:49.781Z,2.90
2023-03-17T04:14:22.978Z,2.80
2023-03-17T04:16:56.213Z,2.90
2023-03-17T04:19:29.520Z,3.20
2023-03-17T04:22:02.620Z,2.10
2023-03-17T04:24:36.015Z,3.10
2023-03-17T04:27:09.813Z,2.70
2023-03-17T04:29:43.484Z,3.30
2023-03-17T04:32:17.032Z,2.70
2023-03-17T04:34:50.036Z,2.20
2023-03-17T04:37:24.065Z,2.30
2023-03-17T04:39:57.701Z,2.80
2023-03-17T04:42:31.010Z,2.80
2023-03-17T04:45:04.662Z,2.90
2023-03-17T04:47:38.293Z,2.90
2023-03-17T04:50:12.477Z,3.30
2023-03-17T04:52:45.349Z,3.10
2023-03-17T04:55:18.759Z,2.70
2023-03-17T04:57:51.590Z,2.60
2023-03-17T05:00:25.017Z,3.30
2023-03-17T05:02:58.664Z,2.80
2023-03-17T05:05:31.727Z,2.60
2023-03-17T05:08:05.340Z,2.80
2023-03-17T05:10:41.113Z,3.20
2023-03-17T05:13:15.050Z,4.30
2023-03-17T05:15:52.233Z,3.10
2023-03-17T05:18:27.263Z,4.00
2023-03-17T05:21:01.413Z,3.70
2023-03-17T05:23:34.913Z,4.50
2023-03-17T05:26:08.255Z,4.50
2023-03-17T05:28:41.562Z,4.70
2023-03-17T05:31:14.875Z,4.60
2023-03-17T05:33:49.473Z,4.60
2023-03-17T05:36:23.233Z,5.50
2023-03-17T05:38:56.822Z,4.70
2023-03-17T05:41:29.739Z,4.30
2023-03-17T05:44:02.744Z,3.90
2023-03-17T05:46:36.871Z,4.40
2023-03-17T05:49:11.015Z,4.90
2023-03-17T05:51:44.698Z,5.20
2023-03-17T05:54:18.128Z,4.80
2023-03-17T05:56:52.784Z,4.30
2023-03-17T05:59:26.491Z,4.50
2023-03-17T06:02:00.433Z,3.70
2023-03-17T06:04:34.802Z,3.40
2023-03-17T06:07:09.948Z,3.70
2023-03-17T06:09:44.063Z,4.10
2023-03-17T06:12:17.715Z,4.20
2023-03-17T06:14:51.123Z,4.10
2023-03-17T06:17:27.253Z,2.80
2023-03-17T06:20:01.858Z,4.20
2023-03-17T06:22:39.757Z,5.30
2023-03-17T06:25:19.602Z,3.60
2023-03-17T06:27:56.293Z,3.80
2023-03-17T06:30:32.152Z,4.30
2023-03-17T06:33:07.457Z,4.30
2023-03-17T06:35:40.976Z,4.70
2023-03-17T06:38:14.297Z,5.80
2023-03-17T06:40:48.542Z,3.80
2023-03-17T06:43:25.867Z,4.80
2023-03-17T06:46:02.052Z,5.10
2023-03-17T06:48:41.987Z,4.80
2023-03-17T06:51:16.463Z,4.40
2023-03-17T06:53:50.726Z,5.30
2023-03-17T06:56:30.330Z,7.00
2023-03-17T06:59:05.740Z,6.40
2023-03-17T07:01:39.820Z,9.90
2023-03-17T07:04:13.993Z,9.90
2023-03-17T07:06:50.946Z,6.50
2023-03-17T07:09:25.082Z,6.40
2023-03-17T07:11:58.720Z,6.00
2023-03-17T07:14:33.382Z,4.50
2023-03-17T07:17:08.686Z,4.90
2023-03-17T07:19:43.160Z,5.30
2023-03-17T07:22:17.755Z,5.20
2023-03-17T07:24:55.643Z,5.00
2023-03-17T07:27:30.715Z,4.10
2023-03-17T07:30:05.475Z,5.10
2023-03-17T07:32:40.164Z,5.40
2023-03-17T07:35:15.199Z,4.10
2023-03-17T07:37:48.473Z,4.90
2023-03-17T07:40:22.582Z,3.20
2023-03-17T07:42:57.072Z,5.00
2023-03-17T07:45:31.182Z,3.60
2023-03-17T07:48:05.684Z,4.40
2023-03-17T07:50:39.723Z,4.40
2023-03-17T07:53:14.176Z,4.00
2023-03-17T07:55:48.201Z,4.30
2023-03-17T07:58:22.273Z,2.90
2023-03-17T08:00:58.622Z,3.70
2023-03-17T08:03:32.330Z,3.70
2023-03-17T08:06:08.117Z,3.60
2023-03-17T08:08:42.705Z,3.00
2023-03-17T08:11:18.000Z,3.50
2023-03-17T08:13:52.267Z,3.50
2023-03-17T08:16:30.728Z,4.00
2023-03-17T08:19:05.415Z,3.40
2023-03-17T08:21:40.110Z,4.30
2023-03-17T08:24:13.683Z,2.80
2023-03-17T08:26:50.250Z,3.60
2023-03-17T08:29:36.430Z,2.70
2023-03-17T08:32:15.921Z,3.80
2023-03-17T08:34:54.684Z,3.50
2023-03-17T08:37:29.211Z,2.60
2023-03-17T08:40:06.518Z,3.60
2023-03-17T08:42:41.670Z,3.40
2023-03-17T08:45:24.441Z,2.80
2023-03-17T08:47:59.174Z,2.80
2023-03-17T08:50:36.601Z,2.90
2023-03-17T08:53:10.591Z,3.00
2023-03-17T08:55:44.513Z,2.40
2023-03-17T08:58:18.214Z,3.20
2023-03-17T09:00:53.246Z,2.50
2023-03-17T09:03:28.554Z,2.50
2023-03-17T09:06:06.018Z,3.40
2023-03-17T09:08:40.730Z,3.00
2023-03-17T09:11:17.879Z,2.20
2023-03-17T09:13:52.183Z,2.90
2023-03-17T09:16:27.407Z,2.60
2023-03-17T09:19:00.724Z,2.00
2023-03-17T09:21:34.292Z,2.60
2023-03-17T09:24:07.918Z,2.20
2023-03-17T09:26:43.352Z,2.30
2023-03-17T09:29:18.029Z,2.10
2023-03-17T09:31:51.534Z,2.90
2023-03-17T09:34:25.865Z,2.30
2023-03-17T09:37:02.077Z,2.00
2023-03-17T09:39:35.557Z,1.90
2023-03-17T09:42:50.653Z,2.20
2023-03-17T09:45:27.319Z,3.10
2023-03-17T09:48:18.655Z,2.10
2023-03-17T09:51:05.800Z,2.00
2023-03-17T09:53:49.394Z,1.90
2023-03-17T09:56:24.553Z,1.80
2023-03-17T09:59:28.232Z,2.00
2023-03-17T10:02:03.139Z,2.10
2023-03-17T10:04:40.001Z,2.30
2023-03-17T10:07:19.166Z,2.30
2023-03-17T10:10:06.743Z,2.30
2023-03-17T10:13:02.499Z,2.30
2023-03-17T10:15:51.137Z,2.80
2023-03-17T10:18:32.993Z,1.80
2023-03-17T10:21:20.547Z,2.30
2023-03-17T10:23:57.461Z,3.10
2023-03-17T10:26:45.347Z,2.70
2023-03-17T10:29:25.110Z,2.10
2023-03-17T10:31:59.021Z,2.80
2023-03-17T10:34:38.030Z,2.20
2023-03-17T10:37:23.775Z,2.20
2023-03-17T10:40:00.658Z,2.30
2023-03-17T10:42:39.970Z,2.50
2023-03-17T10:45:44.912Z,3.00
2023-03-17T10:48:21.413Z,2.50
2023-03-17T10:50:56.796Z,2.00
2023-03-17T10:53:46.407Z,2.60
2023-03-17T10:56:28.820Z,2.20
2023-03-17T10:59:21.442Z,2.30
2023-03-17T11:01:59.667Z,2.40
2023-03-17T11:04:37.199Z,2.60
2023-03-17T11:07:23.941Z,2.10
2023-03-17T11:10:03.873Z,2.50
2023-03-17T11:12:44.557Z,2.30
2023-03-17T11:15:20.951Z,2.40
2023-03-17T11:21:18.222Z,2.00
2023-03-17T11:24:05.209Z,2.20
2023-03-17T11:26:58.632Z,2.50
2023-03-17T11:29:51.728Z,2.10
2023-03-17T11:33:13.944Z,2.20
2023-03-17T11:36:04.593Z,2.00
2023-03-17T11:39:06.529Z,2.60
2023-03-17T11:42:13.007Z,2.20
2023-03-17T11:45:05.626Z,2.40
2023-03-17T11:48:09.320Z,2.10
2023-03-17T11:50:56.224Z,1.40
2023-03-17T11:53:51.364Z,1.60
2023-03-17T11:56:55.600Z,1.90
2023-03-17T11:59:33.142Z,2.30
2023-03-17T12:02:18.554Z,1.90
2023-03-17T12:05:10.611Z,2.20
2023-03-17T12:08:06.279Z,2.70
2023-03-17T12:10:50.042Z,2.50
2023-03-17T12:13:44.155Z,2.30
2023-03-17T12:16:33.886Z,2.50
2023-03-17T12:19:26.456Z,2.30
2023-03-17T12:22:22.840Z,2.00
2023-03-17T12:25:19.665Z,2.10
2023-03-17T12:28:04.996Z,2.10
2023-03-17T12:31:20.555Z,1.80
2023-03-17T12:34:07.169Z,2.00
2023-03-17T12:36:54.090Z,1.80
2023-03-17T12:39:41.307Z,2.00
2023-03-17T12:42:48.292Z,1.70
2023-03-17T12:45:39.792Z,1.90
2023-03-17T12:48:44.443Z,1.80
2023-03-17T12:51:51.388Z,1.40
2023-03-17T12:54:35.273Z,1.80
2023-03-17T12:57:22.133Z,2.20
2023-03-17T13:00:06.941Z,2.20
2023-03-17T13:02:41.574Z,2.20
2023-03-17T13:05:20.236Z,2.20
2023-03-17T13:07:58.518Z,2.10
2023-03-17T13:10:49.598Z,1.60
2023-03-17T13:13:39.788Z,1.90
2023-03-17T13:16:35.200Z,1.70
2023-03-17T13:19:28.162Z,1.30
2023-03-17T13:22:03.844Z,2.40
2023-03-17T13:24:52.468Z,2.50
2023-03-17T13:27:37.772Z,3.10
2023-03-17T13:30:28.336Z,2.10
2023-03-17T13:33:15.751Z,1.50
2023-03-17T13:36:25.024Z,2.00
2023-03-17T13:39:19.708Z,1.80
2023-03-17T13:42:17.949Z,2.10
2023-03-17T13:45:13.961Z,1.90
2023-03-17T13:47:47.837Z,1.30
2023-03-17T13:50:33.293Z,1.30
2023-03-17T13:53:12.362Z,2.10
2023-03-17T13:56:06.179Z,1.40
2023-03-17T13:59:08.424Z,1.70
2023-03-17T14:01:58.398Z,1.80
2023-03-17T14:05:05.872Z,1.70
2023-03-17T14:07:59.279Z,1.50
2023-03-17T14:10:35.124Z,1.90
2023-03-17T14:13:25.489Z,2.00
2023-03-17T14:16:07.787Z,1.60
2023-03-17T14:21:32.117Z,1.50
2023-03-17T14:24:24.102Z,1.60
2023-03-17T14:27:12.385Z,1.90
2023-03-17T14:29:48.497Z,1.70
2023-03-17T14:32:29.403Z,1.20
2023-03-17T14:35:08.036Z,1.90
2023-03-17T14:37:42.030Z,1.70
2023-03-17T14:40:30.546Z,1.40
2023-03-17T14:43:03.849Z,2.00
2023-03-17T14:45:55.837Z,1.80
2023-03-17T14:48:37.006Z,1.80
2023-03-17T14:54:05.999Z,1.60
2023-03-17T14:56:42.851Z,1.70
2023-03-17T14:59:21.002Z,1.50
2023-03-17T15:02:00.542Z,1.50
2023-03-17T15:04:36.578Z,1.90
2023-03-17T15:07:29.332Z,1.80
2023-03-17T15:10:07.257Z,1.60
2023-03-17T15:12:41.151Z,1.90
2023-03-17T15:15:31.151Z,1.90
2023-03-17T15:18:17.532Z,1.90
2023-03-17T15:20:50.745Z,1.50
2023-03-17T15:23:31.857Z,2.00
2023-03-17T15:26:10.692Z,2.10
2023-03-17T15:28:44.118Z,2.00
2023-03-17T15:31:17.886Z,2.20
2023-03-17T15:33:51.053Z,1.90
2023-03-17T15:36:32.238Z,1.90
2023-03-17T15:39:08.815Z,1.90
2023-03-17T15:41:42.024Z,1.60
2023-03-17T15:44:15.207Z,1.90
2023-03-17T15:46:48.852Z,2.00
2023-03-17T15:49:27.092Z,1.50
2023-03-17T15:52:00.411Z,2.00
2023-03-17T15:54:34.040Z,2.50
2023-03-17T15:57:07.348Z,1.90
2023-03-17T15:59:40.846Z,2.10
2023-03-17T16:02:33.280Z,1.90
2023-03-17T16:05:20.541Z,2.40
2023-03-17T16:07:55.132Z,1.70
2023-03-17T16:10:33.840Z,1.70
2023-03-17T16:13:07.630Z,2.50
2023-03-17T16:15:47.993Z,3.60
2023-03-17T16:18:25.026Z,4.30
2023-03-17T16:20:58.530Z,4.80
2023-03-17T16:23:36.857Z,5.60
2023-03-17T16:26:16.203Z,5.00
2023-03-17T16:28:52.030Z,4.60
2023-03-17T16:31:32.767Z,4.40
2023-03-17T16:34:12.244Z,3.60
2023-03-17T16:36:46.842Z,4.40
2023-03-17T16:39:24.199Z,3.60
2023-03-17T16:41:58.019Z,4.80
2023-03-17T16:44:31.665Z,4.50
2023-03-17T16:47:05.214Z,5.40
2023-03-17T16:49:38.495Z,4.90
2023-03-17T16:52:12.663Z,4.20
2023-03-17T16:54:45.950Z,4.30
2023-03-17T16:57:19.350Z,4.30
2023-03-17T16:59:52.437Z,4.20
2023-03-17T17:02:25.337Z,4.70
2023-03-17T17:04:58.437Z,5.50
2023-03-17T17:07:32.605Z,4.80
2023-03-17T17:10:06.201Z,4.70
2023-03-17T17:12:39.167Z,5.00
2023-03-17T17:15:14.533Z,4.90
2023-03-17T17:17:53.880Z,4.70
2023-03-17T17:20:45.383Z,4.30
2023-03-17T17:23:21.515Z,4.10
2023-03-17T17:25:56.610Z,4.10
2023-03-17T17:28:29.867Z,4.30
2023-03-17T17:31:03.257Z,5.30
2023-03-17T17:33:36.376Z,4.80
2023-03-17T17:36:14.892Z,4.30
2023-03-17T17:38:48.031Z,5.10
2023-03-17T17:41:23.306Z,6.70
2023-03-17T17:43:56.694Z,5.80
2023-03-17T17:46:30.301Z,4.50
2023-03-17T17:49:03.755Z,4.80
2023-03-17T17:51:36.758Z,4.40
2023-03-17T17:54:11.293Z,4.60
2023-03-17T17:56:47.455Z,5.00
2023-03-17T17:59:20.601Z,4.60
2023-03-17T18:01:53.770Z,5.00
2023-03-17T18:04:26.841Z,4.70
2023-03-17T18:06:59.990Z,3.60
2023-03-17T18:09:33.222Z,3.80
2023-03-17T18:12:06.813Z,3.30
2023-03-17T18:14:39.783Z,4.00
2023-03-17T18:17:12.751Z,3.20
2023-03-17T18:19:45.858Z,3.90
2023-03-17T18:22:18.838Z,3.30
2023-03-17T18:24:51.843Z,4.00
2023-03-17T18:27:24.745Z,3.70
2023-03-17T18:29:58.734Z,3.70
2023-03-17T18:32:32.047Z,3.40
2023-03-17T18:35:08.624Z,3.60
2023-03-17T18:37:41.972Z,3.70
2023-03-17T18:40:18.612Z,4.10
2023-03-17T18:42:52.486Z,5.80
2023-03-17T18:45:25.671Z,6.40
2023-03-17T18:47:59.038Z,5.50
2023-03-17T18:50:32.304Z,5.00
2023-03-17T18:53:05.775Z,5.70
2023-03-17T18:55:38.966Z,5.60
2023-03-17T18:58:12.130Z,8.20
2023-03-17T19:00:45.386Z,8.60
2023-03-17T19:03:19.159Z,9.90
2023-03-17T19:05:52.339Z,9.50
2023-03-17T19:08:25.854Z,10.40
2023-03-17T19:10:58.947Z,11.00
2023-03-17T19:13:31.807Z,10.80
2023-03-17T19:16:05.476Z,10.60
2023-03-17T19:18:42.028Z,11.60
2023-03-17T19:21:16.040Z,12.50
2023-03-17T19:23:49.273Z,16.10
2023-03-17T19:26:23.650Z,21.30
2023-03-17T19:28:57.334Z,20.60
2023-03-17T19:31:30.610Z,17.60
2023-03-17T19:34:03.695Z,16.70
2023-03-17T19:36:39.071Z,14.80
2023-03-17T19:39:13.352Z,13.70
2023-03-17T19:41:48.950Z,12.20
2023-03-17T19:44:22.380Z,13.00
2023-03-17T19:46:55.257Z,12.80
2023-03-17T19:49:28.450Z,12.30
2023-03-17T19:52:01.801Z,12.20
2023-03-17T19:54:34.714Z,11.80
2023-03-17T19:57:08.111Z,10.80
2023-03-17T19:59:41.463Z,12.80
2023-03-17T20:02:18.403Z,11.60
2023-03-17T20:04:51.982Z,11.60
2023-03-17T20:07:25.188Z,10.30
2023-03-17T20:09:58.152Z,10.90
2023-03-17T20:12:33.343Z,10.10
2023-03-17T20:15:08.026Z,9.70
2023-03-17T20:17:41.507Z,10.00
2023-03-17T20:20:15.079Z,12.90
2023-03-17T20:22:48.084Z,12.30
2023-03-17T20:25:21.021Z,14.50
2023-03-17T20:27:54.291Z,14.70
2023-03-17T20:30:27.380Z,11.80
2023-03-17T20:33:00.536Z,14.20
2023-03-17T20:35:33.715Z,14.50
2023-03-17T20:38:06.376Z,10.00
2023-03-17T20:40:39.822Z,10.10
2023-03-17T20:43:12.716Z,10.10
2023-03-17T20:45:46.199Z,9.50
2023-03-17T20:48:19.540Z,9.40
2023-03-17T20:50:53.328Z,10.20
2023-03-17T20:53:26.290Z,17.00
2023-03-17T20:55:59.552Z,16.60
2023-03-17T20:58:32.571Z,18.60
2023-03-17T21:01:05.859Z,16.90
2023-03-17T21:03:39.436Z,15.10
2023-03-17T21:06:12.813Z,27.70
2023-03-17T21:08:46.789Z,34.90
2023-03-17T21:11:23.669Z,22.20
2023-03-17T21:13:57.351Z,12.40
2023-03-17T21:16:31.038Z,9.80
2023-03-17T21:19:07.954Z,9.80
2023-03-17T21:21:42.627Z,9.30
2023-03-17T21:24:33.112Z,9.00
2023-03-17T21:27:08.259Z,8.00
2023-03-17T21:29:41.881Z,7.80
2023-03-17T21:32:15.125Z,9.90
2023-03-17T21:34:48.604Z,9.70
2023-03-17T21:37:22.049Z,9.30
2023-03-17T21:39:54.976Z,9.60
2023-03-17T21:42:28.283Z,8.50
2023-03-17T21:45:00.828Z,11.10
2023-03-17T21:47:33.574Z,11.70
2023-03-17T21:50:10.241Z,11.70
2023-03-17T21:52:44.286Z,11.60
2023-03-17T21:55:17.546Z,11.60
2023-03-17T21:57:50.949Z,10.10
2023-03-17T22:00:25.718Z,13.30
2023-03-17T22:03:01.456Z,8.30
2023-03-17T22:05:34.839Z,5.90
2023-03-17T22:08:08.021Z,5.30
2023-03-17T22:10:42.212Z,3.60
2023-03-17T22:13:15.062Z,6.10
2023-03-17T22:15:48.086Z,6.30
2023-03-17T22:18:21.209Z,6.90
2023-03-17T22:20:58.286Z,7.00
2023-03-17T22:23:31.338Z,8.40
2023-03-17T22:26:04.241Z,7.90
2023-03-17T22:28:38.378Z,8.10
2023-03-17T22:31:28.173Z,9.40
2023-03-17T22:34:02.660Z,8.50
2023-03-17T22:36:37.314Z,9.20
2023-03-17T22:39:11.277Z,8.20
2023-03-17T22:41:44.607Z,8.00
2023-03-17T22:44:17.597Z,7.70
2023-03-17T22:46:50.787Z,8.70
2023-03-17T22:49:24.772Z,8.00
2023-03-17T22:51:57.818Z,7.50
2023-03-17T22:54:30.819Z,8.50
2023-03-17T22:57:05.625Z,7.60
2023-03-17T22:59:38.469Z,8.00
2023-03-17T23:02:11.923Z,7.90
2023-03-17T23:04:45.989Z,8.10
2023-03-17T23:07:19.014Z,8.90
2023-03-17T23:09:52.003Z,9.00
2023-03-17T23:12:25.066Z,9.50
2023-03-17T23:14:58.481Z,9.20
2023-03-17T23:17:31.275Z,9.10
2023-03-17T23:20:06.821Z,8.80
2023-03-17T23:22:40.008Z,8.00
2023-03-17T23:25:14.166Z,9.00
2023-03-17T23:27:47.467Z,8.70
2023-03-17T23:30:21.620Z,8.70
2023-03-17T23:32:54.246Z,8.10
2023-03-17T23:35:27.412Z,8.60
2023-03-17T23:38:00.364Z,9.00
2023-03-17T23:40:34.767Z,9.60
2023-03-17T23:43:07.609Z,8.80
2023-03-17T23:45:41.574Z,8.70
2023-03-17T23:48:14.326Z,7.70
2023-03-17T23:50:47.278Z,8.20
2023-03-17T23:53:20.595Z,8.10
2023-03-17T23:55:55.024Z,8.40
2023-03-17T23:58:28.056Z,8.60
